Time;durP1;ratioP1;P1;durP2;ratioP2;P2;SDS_P1;SDS_P2;PMS_P1;PMS_P2;Temp;Humidity;BMP_temperature;BMP_pressure;BME280_temperature;BME280_humidity;BME280_pressure;Samples;Min_cycle;Max_cycle;Signal;HPM_P1;HPM_P2
2022/04/11 00:00:25;;;;;;;12.20;4.47;;;1.20;99.90;0.10;100050;;;;577321;246;24068;-81
2022/04/11 00:02:53;;;;;;;11.83;4.20;;;1.20;99.90;0.10;100055;;;;577477;246;24155;-81
2022/04/11 00:05:22;;;;;;;12.20;4.40;;;1.10;99.90;0.10;100052;;;;577692;246;25119;-77
2022/04/11 00:07:52;;;;;;;12.40;4.30;;;1.10;99.90;0.10;100051;;;;562536;251;24093;-78
2022/04/11 00:10:20;;;;;;;9.63;3.87;;;1.10;99.90;0.00;100052;;;;562571;249;24108;-78
2022/04/11 00:12:45;;;;;;;8.47;3.73;;;1.10;99.90;0.00;100056;;;;579241;245;24055;-82
2022/04/11 00:15:13;;;;;;;11.27;3.93;;;1.10;99.90;0.00;100055;;;;579056;244;24067;-80
2022/04/11 00:17:41;;;;;;;10.20;3.63;;;1.00;99.90;0.00;100058;;;;578569;246;24131;-80
2022/04/11 00:20:13;;;;;;;11.70;4.50;;;1.00;99.90;0.00;100053;;;;578549;246;24060;-81
2022/04/11 00:22:37;;;;;;;14.03;4.07;;;1.00;99.90;0.00;100058;;;;552829;256;25210;-82
2022/04/11 00:25:05;;;;;;;11.30;4.70;;;1.00;99.90;0.00;100059;;;;577368;244;24107;-81
2022/04/11 00:27:33;;;;;;;9.97;4.23;;;1.10;99.90;0.00;100054;;;;577843;244;25100;-84
2022/04/11 00:30:01;;;;;;;10.97;3.90;;;1.10;99.90;0.00;100056;;;;577865;246;24088;-82
2022/04/11 00:32:29;;;;;;;9.87;3.83;;;1.00;99.90;0.00;100063;;;;552523;254;24124;-81
2022/04/11 00:34:59;;;;;;;11.00;3.93;;;1.00;99.90;-0.10;100062;;;;578084;244;24049;-84
2022/04/11 00:37:25;;;;;;;8.83;4.30;;;0.90;99.90;-0.10;100063;;;;577669;244;24143;-85
2022/04/11 00:39:52;;;;;;;9.93;3.70;;;0.90;99.90;-0.20;100069;;;;562773;251;24127;-84
2022/04/11 00:42:20;;;;;;;13.10;4.17;;;0.90;99.90;-0.20;100079;;;;577956;246;24074;-79
2022/04/11 00:44:49;;;;;;;11.23;4.37;;;0.80;99.90;-0.20;100065;;;;562573;251;24162;-78
2022/04/11 00:47:17;;;;;;;12.53;3.77;;;0.80;99.90;-0.20;100070;;;;577266;246;24083;-81
2022/04/11 00:49:45;;;;;;;7.03;3.40;;;0.80;99.90;-0.20;100075;;;;563001;251;24136;-77
2022/04/11 00:52:13;;;;;;;11.40;4.30;;;0.80;99.90;-0.30;100085;;;;573813;246;24097;-82
2022/04/11 00:54:44;;;;;;;11.10;3.80;;;0.80;99.90;-0.30;100087;;;;577903;246;24055;-78
2022/04/11 00:57:09;;;;;;;12.77;4.87;;;0.70;99.90;-0.30;100089;;;;574210;246;24099;-78
2022/04/11 00:59:36;;;;;;;11.13;4.30;;;0.70;99.90;-0.40;100090;;;;571099;251;24147;-78
2022/04/11 01:02:04;;;;;;;6.77;3.93;;;0.70;99.90;-0.40;100093;;;;577590;246;24093;-79
2022/04/11 01:04:32;;;;;;;11.90;4.23;;;0.70;99.90;-0.40;100097;;;;577135;246;24175;-76
2022/04/11 01:07:00;;;;;;;11.17;3.50;;;0.60;99.90;-0.50;100086;;;;562318;251;25107;-80
2022/04/11 01:09:29;;;;;;;11.57;4.37;;;0.60;99.90;-0.50;100107;;;;577111;246;24110;-78
2022/04/11 01:11:58;;;;;;;9.13;4.30;;;0.50;99.90;-0.50;100099;;;;562148;250;24076;-78
2022/04/11 01:14:25;;;;;;;10.87;4.20;;;0.50;99.90;-0.50;100092;;;;577059;246;24088;-81
2022/04/11 01:16:57;;;;;;;12.10;4.10;;;0.50;99.90;-0.60;100101;;;;562276;251;24128;-77
2022/04/11 01:19:21;;;;;;;12.60;4.60;;;0.50;99.90;-0.60;100098;;;;576995;246;25443;-78
2022/04/11 01:21:49;;;;;;;11.83;4.47;;;0.50;99.90;-0.60;100099;;;;562319;245;24078;-78
2022/04/11 01:24:20;;;;;;;10.70;4.30;;;0.40;99.90;-0.70;100105;;;;578543;245;24054;-77
2022/04/11 01:26:47;;;;;;;9.47;3.70;;;0.40;99.90;-0.70;100098;;;;577699;246;24050;-78
2022/04/11 01:29:18;;;;;;;12.90;4.10;;;0.40;99.90;-0.70;100109;;;;577616;246;24087;-78
2022/04/11 01:31:46;;;;;;;10.43;5.13;;;0.30;99.90;-0.70;100103;;;;577406;246;24073;-79
2022/04/11 01:34:17;;;;;;;14.43;4.50;;;0.30;99.90;-0.70;100110;;;;562360;251;24092;-78
2022/04/11 01:36:43;;;;;;;13.30;4.47;;;0.30;99.90;-0.80;100110;;;;576909;246;24073;-78
2022/04/11 01:39:10;;;;;;;13.03;4.47;;;0.30;99.90;-0.80;100099;;;;562333;251;24074;-81
2022/04/11 01:41:38;;;;;;;9.67;3.80;;;0.30;99.90;-0.80;100108;;;;577165;246;24068;-79
2022/04/11 01:44:06;;;;;;;10.53;4.23;;;0.20;99.90;-0.80;100108;;;;577063;244;24057;-80
2022/04/11 01:46:34;;;;;;;8.20;3.77;;;0.20;99.90;-0.90;100108;;;;562298;249;24089;-79
2022/04/11 01:49:02;;;;;;;11.90;4.13;;;0.20;99.90;-0.90;100110;;;;577079;246;24085;-80
2022/04/11 01:51:30;;;;;;;12.57;3.97;;;0.20;99.90;-0.90;100119;;;;577707;246;24051;-78
2022/04/11 01:53:58;;;;;;;14.67;4.50;;;0.20;99.90;-0.90;100125;;;;562413;250;24084;-77
2022/04/11 01:56:26;;;;;;;12.57;4.30;;;0.20;99.90;-0.90;100120;;;;577079;246;24091;-82
2022/04/11 01:58:54;;;;;;;13.10;4.80;;;0.20;99.90;-0.90;100122;;;;562611;251;24103;-79
2022/04/11 02:01:22;;;;;;;14.20;3.90;;;0.20;99.90;-0.90;100126;;;;577357;246;24134;-79
2022/04/11 02:03:50;;;;;;;12.57;4.10;;;0.20;99.90;-0.90;100131;;;;562615;251;24148;-79
2022/04/11 02:06:18;;;;;;;11.73;3.57;;;0.20;99.90;-0.90;100135;;;;577224;246;25163;-78
2022/04/11 02:08:46;;;;;;;11.37;4.43;;;0.20;99.90;-0.90;100143;;;;562245;251;24089;-78
2022/04/11 02:11:13;;;;;;;14.33;4.37;;;0.20;99.90;-0.90;100129;;;;577053;246;25152;-78
2022/04/11 02:13:41;;;;;;;16.23;4.10;;;0.20;99.90;-0.90;100133;;;;562211;251;24066;-80
2022/04/11 02:16:09;;;;;;;11.60;4.30;;;0.10;99.90;-1.00;100136;;;;577190;246;24066;-80
2022/04/11 02:18:37;;;;;;;11.13;3.90;;;0.10;99.90;-1.00;100144;;;;562438;251;24097;-79
2022/04/11 02:21:05;;;;;;;13.70;3.97;;;0.10;99.90;-1.00;100143;;;;577856;246;24063;-77
2022/04/11 02:23:33;;;;;;;13.17;4.47;;;0.10;99.90;-1.00;100138;;;;563317;251;24076;-80
2022/04/11 02:26:02;;;;;;;15.23;4.40;;;0.10;99.90;-1.00;100141;;;;577390;245;24153;-76
2022/04/11 02:28:30;;;;;;;8.37;4.10;;;0.00;99.90;-1.00;100138;;;;553190;254;24139;-76
2022/04/11 02:30:58;;;;;;;12.63;3.80;;;0.00;99.90;-1.10;100151;;;;577290;246;24046;-83
2022/04/11 02:33:25;;;;;;;10.87;3.90;;;0.00;99.90;-1.00;100147;;;;562464;249;24155;-84
2022/04/11 02:35:53;;;;;;;10.00;4.20;;;0.00;99.90;-1.10;100145;;;;578776;244;24061;-83
2022/04/11 02:38:22;;;;;;;12.20;4.20;;;0.00;99.90;-1.00;100146;;;;563452;250;24102;-83
2022/04/11 02:40:49;;;;;;;12.63;4.23;;;0.00;99.90;-1.00;100139;;;;578325;239;24064;-81
2022/04/11 02:43:17;;;;;;;9.00;3.87;;;0.00;99.90;-1.10;100142;;;;563175;249;24092;-83
2022/04/11 02:45:45;;;;;;;7.78;3.58;;;0.00;99.90;-1.00;100139;;;;572908;245;35262;-79
2022/04/11 02:48:18;;;;;;;5.10;2.50;;;0.00;99.90;-1.10;100144;;;;562624;251;24102;-79
2022/04/11 02:50:43;;;;;;;6.63;2.90;;;0.00;99.90;-1.00;100147;;;;577346;246;24089;-77
2022/04/11 02:53:12;;;;;;;11.27;3.93;;;0.10;99.90;-1.00;100141;;;;562466;251;24100;-81
2022/04/11 02:55:40;;;;;;;12.90;4.77;;;0.00;99.90;-1.00;100146;;;;577036;246;24058;-80
2022/04/11 02:58:08;;;;;;;9.70;4.10;;;0.10;99.90;-1.00;100141;;;;562537;250;24084;-82
2022/04/11 03:00:36;;;;;;;18.53;5.37;;;0.00;99.90;-1.00;100145;;;;577469;244;24100;-80
2022/04/11 03:03:04;;;;;;;13.45;3.90;;;0.10;99.90;-1.00;100144;;;;557642;250;35352;-80
2022/04/11 03:05:34;;;;;;;6.03;3.57;;;0.10;99.90;-1.00;100147;;;;577523;246;24053;-79
2022/04/11 03:08:03;;;;;;;6.20;2.13;;;0.10;99.90;-1.00;100140;;;;562460;251;24092;-79
2022/04/11 03:10:28;;;;;;;10.93;3.37;;;0.10;99.90;-1.00;100141;;;;577126;246;24209;-80
2022/04/11 03:12:56;;;;;;;9.60;3.87;;;0.10;99.90;-1.10;100149;;;;562448;251;24084;-81
2022/04/11 03:15:24;;;;;;;10.17;4.30;;;0.10;99.90;-1.10;100149;;;;577226;246;24091;-82
2022/04/11 03:17:52;;;;;;;10.33;3.90;;;0.00;99.90;-1.10;100139;;;;562511;251;24093;-80
2022/04/11 03:20:20;;;;;;;12.47;4.03;;;0.00;99.90;-1.10;100146;;;;577476;246;24080;-80
2022/04/11 03:22:48;;;;;;;7.20;3.97;;;0.00;99.90;-1.10;100149;;;;562736;250;24070;-82
2022/04/11 03:25:16;;;;;;;14.40;4.53;;;0.00;99.90;-1.10;100152;;;;577730;246;24100;-79
2022/04/11 03:27:44;;;;;;;13.07;4.20;;;-0.10;99.90;-1.00;100147;;;;558002;251;35312;-80
2022/04/11 03:30:12;;;;;;;4.77;2.23;;;0.00;99.90;-1.10;100147;;;;577374;246;24093;-85
2022/04/11 03:32:40;;;;;;;5.27;2.60;;;0.00;99.90;-1.00;100148;;;;562870;250;24079;-77
2022/04/11 03:35:09;;;;;;;9.83;3.30;;;0.00;99.90;-1.00;100146;;;;577296;244;24076;-80
2022/04/11 03:37:36;;;;;;;7.07;3.67;;;0.10;99.90;-0.90;100156;;;;562978;251;24123;-78
2022/04/11 03:40:04;;;;;;;10.63;3.83;;;0.20;99.90;-0.80;100162;;;;580982;246;24096;-79
2022/04/11 03:42:32;;;;;;;7.67;3.37;;;0.30;99.90;-0.70;100159;;;;562610;251;24096;-81
2022/04/11 03:45:00;;;;;;;14.93;4.10;;;0.40;99.90;-0.50;100167;;;;577307;244;24064;-80
2022/04/11 03:47:28;;;;;;;10.53;4.27;;;0.70;99.90;-0.40;100165;;;;563902;251;24102;-80
2022/04/11 03:49:57;;;;;;;7.63;3.57;;;0.80;99.90;-0.30;100168;;;;578531;246;24114;-81
2022/04/11 03:52:25;;;;;;;10.60;3.37;;;0.80;99.90;-0.10;100166;;;;563081;251;24153;-79
2022/04/11 03:54:53;;;;;;;10.70;3.57;;;0.90;99.90;0.00;100174;;;;577621;246;24072;-80
2022/04/11 03:57:24;;;;;;;8.53;3.40;;;1.00;99.90;0.10;100171;;;;552512;256;24127;-80
2022/04/11 03:59:49;;;;;;;2.77;2.00;;;1.10;99.90;0.20;100174;;;;577743;246;24071;-78
2022/04/11 04:02:17;;;;;;;8.20;2.53;;;1.30;99.90;0.30;100178;;;;578173;246;24092;-83
2022/04/11 04:04:44;;;;;;;2.00;1.73;;;1.40;99.90;0.40;100184;;;;577991;244;24061;-80
2022/04/11 04:07:12;;;;;;;2.40;2.10;;;1.50;99.90;0.60;100181;;;;578064;246;24071;-85
2022/04/11 04:09:40;;;;;;;3.20;1.83;;;1.60;99.90;0.70;100181;;;;577644;244;24060;-81
2022/04/11 04:12:08;;;;;;;6.57;2.47;;;1.70;99.90;0.80;100191;;;;577576;246;24040;-81
2022/04/11 04:14:37;;;;;;;3.73;1.73;;;1.90;99.90;0.90;100189;;;;552437;256;25289;-81
2022/04/11 04:17:05;;;;;;;7.97;1.90;;;1.90;99.90;0.90;100201;;;;580921;246;24109;-80
2022/04/11 04:19:33;;;;;;;14.97;3.10;;;2.00;99.90;1.00;100204;;;;552418;256;24121;-82
2022/04/11 04:22:01;;;;;;;6.27;2.10;;;2.00;99.90;1.10;100205;;;;577427;244;24127;-80
2022/04/11 04:24:29;;;;;;;8.43;1.83;;;2.20;99.90;1.20;100188;;;;552275;254;24113;-80
2022/04/11 04:26:57;;;;;;;7.47;2.10;;;2.20;99.90;1.20;100201;;;;577305;246;24122;-81
2022/04/11 04:29:29;;;;;;;3.67;2.33;;;2.20;99.90;1.30;100208;;;;577296;246;25101;-80
2022/04/11 04:31:54;;;;;;;6.63;2.40;;;2.30;99.90;1.20;100198;;;;576741;246;24087;-78
2022/04/11 04:34:22;;;;;;;4.00;2.83;;;2.20;99.90;1.20;100209;;;;576766;244;24082;-79
2022/04/11 04:36:50;;;;;;;4.57;2.43;;;2.20;99.90;1.10;100203;;;;551505;256;24212;-78
2022/04/11 04:39:18;;;;;;;7.03;2.57;;;2.20;99.90;1.10;100213;;;;576735;246;24085;-78
2022/04/11 04:41:46;;;;;;;3.73;2.57;;;2.20;99.90;1.20;100215;;;;576787;246;24077;-78
2022/04/11 04:44:13;;;;;;;3.80;2.00;;;2.20;99.90;1.20;100216;;;;577173;246;24080;-81
2022/04/11 04:46:41;;;;;;;7.33;2.47;;;2.20;99.90;1.30;100212;;;;576914;246;24066;-82
2022/04/11 04:49:09;;;;;;;3.10;2.27;;;2.30;99.90;1.40;100217;;;;577296;246;24079;-81
2022/04/11 04:51:41;;;;;;;2.83;1.83;;;2.30;99.90;1.40;100215;;;;551767;254;24185;-84
2022/04/11 04:54:05;;;;;;;4.57;1.87;;;2.40;99.90;1.40;100215;;;;576366;246;24049;-80
2022/04/11 04:56:33;;;;;;;7.13;2.57;;;2.40;99.90;1.40;100217;;;;551804;254;24137;-79
2022/04/11 04:59:01;;;;;;;5.83;2.73;;;2.40;99.90;1.40;100220;;;;578363;245;24057;-85
2022/04/11 05:01:29;;;;;;;8.03;3.07;;;2.40;99.90;1.40;100224;;;;578196;244;24061;-84
2022/04/11 05:03:57;;;;;;;8.20;3.13;;;2.40;99.90;1.40;100226;;;;552752;256;24111;-81
2022/04/11 05:06:25;;;;;;;7.83;3.10;;;2.40;99.90;1.80;100222;;;;577995;246;24121;-79
2022/04/11 05:08:52;;;;;;;12.50;3.23;;;2.60;99.90;3.50;100235;;;;577763;244;24060;-80
2022/04/11 05:11:20;;;;;;;12.97;3.40;;;3.90;99.90;5.40;100245;;;;577794;246;24072;-78
2022/04/11 05:13:49;;;;;;;8.07;2.60;;;7.70;99.90;7.30;100247;;;;577775;244;24100;-79
2022/04/11 05:16:18;;;;;;;7.27;2.87;;;7.70;99.90;8.90;100256;;;;577616;246;24052;-79
2022/04/11 05:18:47;;;;;;;6.13;3.37;;;9.30;99.90;10.30;100252;;;;577372;244;24096;-79
2022/04/11 05:21:15;;;;;;;5.87;2.23;;;10.80;99.90;11.60;100258;;;;562446;251;24100;-80
2022/04/11 05:23:43;;;;;;;6.13;2.77;;;12.00;99.90;12.60;100256;;;;577386;246;24089;-81
2022/04/11 05:26:11;;;;;;;6.53;2.43;;;13.20;99.90;13.60;100262;;;;577526;246;24116;-79
2022/04/11 05:28:39;;;;;;;6.93;2.77;;;14.10;99.20;14.10;100261;;;;577465;246;24074;-82
2022/04/11 05:31:07;;;;;;;7.30;2.20;;;14.90;93.30;14.70;100260;;;;577466;246;24099;-79
2022/04/11 05:33:35;;;;;;;6.50;2.37;;;15.40;90.30;15.40;100264;;;;576948;246;24124;-82
2022/04/11 05:36:04;;;;;;;4.23;2.80;;;16.80;77.60;16.20;100265;;;;576776;245;24055;-84
2022/04/11 05:38:31;;;;;;;11.60;2.77;;;16.80;77.50;16.60;100271;;;;576956;246;24122;-80
2022/04/11 05:40:59;;;;;;;5.33;2.10;;;17.40;73.60;16.20;100277;;;;551706;256;24145;-80
2022/04/11 05:43:27;;;;;;;6.67;2.20;;;17.20;70.60;16.50;100268;;;;580234;246;24058;-80
2022/04/11 05:45:55;;;;;;;7.53;2.30;;;17.30;69.50;17.40;100286;;;;576861;246;24054;-81
2022/04/11 05:48:23;;;;;;;9.23;2.30;;;18.00;67.30;18.00;100277;;;;551811;254;24140;-80
2022/04/11 05:50:51;;;;;;;4.57;2.50;;;18.60;63.90;18.10;100291;;;;571680;246;35091;-80
2022/04/11 05:53:19;;;;;;;6.40;2.50;;;18.80;61.70;18.20;100282;;;;576751;246;24156;-83
2022/04/11 05:55:47;;;;;;;4.30;2.30;;;18.90;61.30;18.80;100289;;;;576914;246;24058;-82
2022/04/11 05:58:15;;;;;;;4.87;2.30;;;19.50;59.40;19.80;100292;;;;556580;256;24114;-82
2022/04/11 06:00:43;;;;;;;4.57;2.13;;;20.20;58.00;21.00;100294;;;;577224;246;24107;-84
2022/04/11 06:03:11;;;;;;;7.73;2.33;;;21.30;55.40;21.80;100301;;;;552035;256;24102;-84
2022/04/11 06:05:39;;;;;;;5.30;2.30;;;22.30;53.80;22.30;100306;;;;577238;240;24154;-85
2022/04/11 06:08:07;;;;;;;6.10;2.20;;;23.50;50.00;22.90;100310;;;;574589;246;24064;-81
2022/04/11 06:10:36;;;;;;;8.97;2.50;;;23.40;49.90;23.10;100307;;;;578361;245;24061;-83
2022/04/11 06:13:03;;;;;;;6.80;2.20;;;23.80;48.30;23.50;100313;;;;578074;246;24062;-83
2022/04/11 06:15:31;;;;;;;7.30;2.70;;;24.20;47.60;24.20;100318;;;;577614;246;24068;-86
2022/04/11 06:17:59;;;;;;;6.90;2.30;;;24.80;46.80;24.90;100312;;;;577699;246;24101;-85
2022/04/11 06:20:27;;;;;;;6.70;2.57;;;25.50;45.80;26.00;100315;;;;577366;246;23075;-84
2022/04/11 06:22:55;;;;;;;10.80;2.93;;;26.40;43.90;25.40;100319;;;;577287;246;25113;-86
2022/04/11 06:25:23;;;;;;;5.83;2.70;;;26.30;43.00;24.10;100322;;;;552253;256;23130;-85
2022/04/11 06:27:51;;;;;;;8.27;2.93;;;25.40;43.10;22.40;100322;;;;577230;246;23176;-83
2022/04/11 06:30:18;;;;;;;7.40;2.60;;;24.00;44.80;21.60;100317;;;;577428;246;24097;-85
2022/04/11 06:32:47;;;;;;;4.43;2.33;;;21.90;46.90;20.60;100317;;;;552203;254;24183;-82
2022/04/11 06:35:15;;;;;;;11.20;2.90;;;21.80;46.80;21.20;100315;;;;577346;246;24046;-83
2022/04/11 06:37:43;;;;;;;8.30;2.33;;;21.80;48.20;22.60;100323;;;;577191;246;24057;-81
2022/04/11 06:40:11;;;;;;;8.57;3.40;;;22.90;46.10;23.90;100333;;;;577070;246;24112;-80
2022/04/11 06:42:39;;;;;;;5.43;2.40;;;24.00;44.90;24.10;100334;;;;586119;239;24057;-82
2022/04/11 06:45:07;;;;;;;6.83;2.30;;;24.60;43.50;23.50;100343;;;;577008;244;24030;-80
2022/04/11 06:47:38;;;;;;;5.33;2.40;;;24.40;43.20;23.30;100339;;;;560042;255;24137;-82
2022/04/11 06:50:03;;;;;;;5.53;1.90;;;24.10;43.10;22.90;100349;;;;576722;246;23088;-80
2022/04/11 06:52:31;;;;;;;7.87;2.20;;;23.80;43.10;21.10;100342;;;;551814;256;24157;-78
2022/04/11 06:54:59;;;;;;;7.50;2.27;;;20.90;46.80;19.30;100338;;;;576946;246;24054;-78
2022/04/11 06:57:29;;;;;;;6.07;2.37;;;19.50;49.10;17.90;100347;;;;577070;244;24069;-80
2022/04/11 06:59:57;;;;;;;5.67;2.10;;;18.00;51.80;16.50;100339;;;;577305;246;24059;-80
2022/04/11 07:02:25;;;;;;;3.40;2.47;;;17.80;51.70;15.10;100334;;;;552316;254;24149;-80
2022/04/11 07:04:53;;;;;;;7.80;2.30;;;16.50;53.90;13.90;100337;;;;577426;244;24074;-81
2022/04/11 07:07:20;;;;;;;5.40;2.20;;;15.20;56.60;12.80;100346;;;;577375;244;24120;-83
2022/04/11 07:09:48;;;;;;;4.27;2.07;;;14.00;58.70;11.80;100335;;;;577289;246;24112;-81
2022/04/11 07:12:16;;;;;;;6.83;1.93;;;13.00;61.00;11.10;100345;;;;552044;256;24122;-84
2022/04/11 07:14:44;;;;;;;5.93;2.10;;;12.10;63.10;11.00;100348;;;;577160;246;24073;-80
2022/04/11 07:17:12;;;;;;;8.17;2.13;;;11.70;65.10;12.90;100349;;;;577145;246;24112;-79
2022/04/11 07:19:44;;;;;;;5.00;2.00;;;16.00;62.70;16.70;100359;;;;552295;254;24117;-80
2022/04/11 07:22:09;;;;;;;15.17;2.77;;;19.00;54.40;19.30;100364;;;;579453;245;24131;-86
2022/04/11 07:24:38;;;;;;;5.83;2.07;;;21.00;51.00;21.20;100368;;;;553105;256;24120;-84
2022/04/11 07:27:06;;;;;;;6.97;2.37;;;20.90;50.30;23.50;100360;;;;578087;246;24059;-84
2022/04/11 07:29:34;;;;;;;6.73;2.87;;;23.40;47.00;25.30;100369;;;;578104;246;24037;-84
2022/04/11 07:32:02;;;;;;;10.13;2.50;;;25.50;43.50;24.90;100379;;;;577940;246;24068;-85
2022/04/11 07:34:30;;;;;;;4.40;2.40;;;25.80;42.10;24.90;100371;;;;577979;246;24056;-86
2022/04/11 07:36:58;;;;;;;4.37;2.17;;;25.70;41.90;24.50;100377;;;;552527;254;23153;-86
2022/04/11 07:39:26;;;;;;;5.07;2.50;;;25.50;40.10;22.40;100375;;;;577231;244;23169;-84
2022/04/11 07:41:54;;;;;;;4.20;2.40;;;24.10;40.90;20.50;100378;;;;577241;246;24061;-81
2022/04/11 07:44:24;;;;;;;5.00;2.50;;;22.50;42.90;19.10;100378;;;;576963;246;24104;-83
2022/04/11 07:46:52;;;;;;;4.03;2.57;;;20.90;45.00;17.60;100374;;;;577136;246;24077;-83
2022/04/11 07:49:20;;;;;;;7.00;1.93;;;19.30;46.90;16.20;100369;;;;577103;246;23082;-82
2022/04/11 07:51:48;;;;;;;6.70;1.70;;;16.80;50.60;15.70;100368;;;;551810;256;25181;-80
2022/04/11 07:54:16;;;;;;;3.87;1.70;;;16.70;50.60;17.70;100377;;;;577067;246;25141;-79
2022/04/11 07:56:44;;;;;;;6.83;1.70;;;17.80;50.80;19.70;100370;;;;576771;245;24063;-83
2022/04/11 07:59:12;;;;;;;4.03;1.60;;;19.60;47.30;22.30;100376;;;;551717;256;24154;-84
2022/04/11 08:01:40;;;;;;;4.00;1.97;;;22.00;44.10;24.50;100374;;;;577159;244;24068;-81
2022/04/11 08:04:08;;;;;;;6.43;1.60;;;24.50;40.70;25.10;100384;;;;577132;246;24084;-80
2022/04/11 08:06:36;;;;;;;4.40;1.60;;;25.40;38.80;26.30;100394;;;;577102;246;24064;-81
2022/04/11 08:09:04;;;;;;;7.00;1.77;;;26.70;37.30;26.60;100386;;;;577128;246;24095;-79
2022/04/11 08:11:33;;;;;;;6.03;2.10;;;25.90;36.70;24.10;100395;;;;577178;246;23134;-83
2022/04/11 08:14:01;;;;;;;4.73;2.20;;;23.70;38.80;21.40;100390;;;;577087;246;24085;-82
2022/04/11 08:16:29;;;;;;;8.53;2.00;;;23.60;38.70;19.30;100388;;;;577153;246;24114;-83
2022/04/11 08:18:57;;;;;;;1.97;1.60;;;21.50;42.00;17.70;100393;;;;577173;246;24093;-84
2022/04/11 08:21:25;;;;;;;4.63;1.67;;;19.60;43.80;16.10;100391;;;;577217;245;24123;-83
2022/04/11 08:23:53;;;;;;;6.00;2.00;;;17.90;46.60;15.70;100398;;;;552205;256;24157;-80
2022/04/11 08:26:21;;;;;;;7.93;1.73;;;16.80;49.30;15.20;100394;;;;577200;244;24121;-84
2022/04/11 08:28:49;;;;;;;2.93;1.80;;;16.20;50.10;14.50;100398;;;;577337;244;24080;-82
2022/04/11 08:31:17;;;;;;;5.87;1.70;;;15.50;51.00;13.70;100383;;;;580628;242;24076;-84
2022/04/11 08:33:45;;;;;;;4.03;1.33;;;14.20;53.50;13.30;100374;;;;578895;243;24174;-83
2022/04/11 08:36:13;;;;;;;3.87;1.20;;;14.10;53.40;12.90;100381;;;;552968;254;24156;-84
2022/04/11 08:38:42;;;;;;;7.07;2.13;;;13.40;55.90;12.70;100391;;;;577641;244;24068;-82
2022/04/11 08:41:11;;;;;;;4.90;1.70;;;13.00;57.20;12.20;100387;;;;577670;244;24089;-83
2022/04/11 08:43:42;;;;;;;3.53;1.70;;;13.00;57.20;11.80;100386;;;;576948;244;24085;-81
2022/04/11 08:46:06;;;;;;;3.40;1.77;;;12.60;58.70;11.60;100384;;;;576934;246;24073;-84
2022/04/11 08:48:34;;;;;;;4.23;1.67;;;12.30;59.60;11.50;100388;;;;577306;246;24066;-84
2022/04/11 08:51:03;;;;;;;2.60;1.77;;;12.20;60.00;11.30;100389;;;;577066;246;24176;-84
2022/04/11 08:53:30;;;;;;;3.47;2.33;;;12.00;58.90;11.50;100391;;;;577186;240;24065;-84
2022/04/11 08:55:58;;;;;;;5.00;2.23;;;12.00;58.30;14.00;100390;;;;577050;246;24057;-80
2022/04/11 08:58:26;;;;;;;10.30;2.20;;;14.00;57.70;16.70;100391;;;;577213;246;24055;-81
2022/04/11 09:00:54;;;;;;;3.60;1.53;;;16.60;53.40;19.70;100394;;;;580397;246;24094;-84
2022/04/11 09:03:23;;;;;;;6.30;1.80;;;21.90;44.10;21.50;100397;;;;577521;244;24052;-84
2022/04/11 09:06:09;;;;;;;5.57;1.70;;;21.80;44.00;20.70;100391;;;;552594;256;24117;-79
2022/04/11 09:08:41;;;;;;;6.93;1.77;;;20.70;43.10;18.80;100408;;;;577077;246;24050;-78
2022/04/11 09:11:09;;;;;;;4.30;1.67;;;20.70;43.10;17.60;100399;;;;552081;256;24132;-79
2022/04/11 09:13:49;;;;;;;4.60;2.27;;;19.40;44.50;16.80;100399;;;;576954;246;24160;-79
2022/04/11 09:16:16;;;;;;;4.47;1.67;;;18.40;45.60;16.30;100390;;;;574959;246;24087;-80
2022/04/11 09:18:54;;;;;;;4.63;1.20;;;17.60;47.10;15.90;100387;;;;577078;246;24156;-79
2022/04/11 09:21:25;;;;;;;2.23;1.57;;;17.00;48.10;16.20;100397;;;;576765;246;24106;-81
2022/04/11 09:23:50;;;;;;;4.03;1.30;;;17.00;47.90;16.70;100395;;;;577045;246;24112;-78
2022/04/11 09:26:23;;;;;;;3.20;1.40;;;17.30;47.70;16.10;100400;;;;577033;246;24144;-79
2022/04/11 09:29:07;;;;;;;2.60;1.40;;;16.30;47.90;15.10;100392;;;;551989;256;24122;-78
2022/04/11 09:31:32;;;;;;;1.93;1.10;;;16.20;47.80;14.20;100387;;;;573535;246;24057;-79
2022/04/11 09:34:15;;;;;;;3.07;1.70;;;15.30;49.20;13.50;100394;;;;577171;246;25100;-79
2022/04/11 09:36:52;;;;;;;5.60;2.00;;;14.70;50.60;12.90;100397;;;;574777;246;24076;-79
2022/04/11 09:39:25;;;;;;;4.23;1.00;;;13.90;53.00;12.30;100395;;;;576694;246;24082;-80
2022/04/11 09:41:57;;;;;;;5.10;1.30;;;13.20;53.40;11.80;100395;;;;576710;246;24084;-81
2022/04/11 09:44:27;;;;;;;4.23;1.70;;;12.80;54.60;11.50;100395;;;;560710;254;24143;-80
2022/04/11 09:46:55;;;;;;;4.57;1.60;;;12.30;56.00;11.20;100396;;;;580777;245;24095;-81
2022/04/11 09:49:24;;;;;;;2.10;0.83;;;11.90;57.80;11.20;100391;;;;576994;246;24050;-84
2022/04/11 09:52:14;;;;;;;2.77;1.37;;;11.90;57.70;11.30;100398;;;;551976;256;24128;-78
2022/04/11 09:54:44;;;;;;;3.03;1.60;;;11.90;57.70;11.50;100396;;;;577030;246;24196;-81
2022/04/11 09:57:12;;;;;;;4.43;1.60;;;12.10;57.70;11.90;100400;;;;552224;254;24160;-79
2022/04/11 09:59:40;;;;;;;4.97;1.53;;;12.50;57.10;11.90;100413;;;;576922;246;24079;-81
2022/04/11 10:02:11;;;;;;;2.37;0.93;;;12.60;56.50;11.80;100399;;;;576866;244;24159;-79
2022/04/11 10:04:35;;;;;;;1.80;1.27;;;12.50;56.40;11.70;100410;;;;576784;246;24142;-79
2022/04/11 10:07:03;;;;;;;3.83;1.20;;;12.40;56.80;11.60;100402;;;;577086;246;24044;-80
2022/04/11 10:09:31;;;;;;;3.47;1.30;;;12.40;56.50;11.40;100406;;;;574785;246;25115;-78
2022/04/11 10:11:59;;;;;;;3.60;1.30;;;12.20;56.90;11.40;100398;;;;577310;246;24085;-79
2022/04/11 10:14:27;;;;;;;4.77;1.70;;;12.10;57.30;11.40;100400;;;;552494;256;24266;-79
2022/04/11 10:17:01;;;;;;;3.83;1.10;;;12.10;57.40;11.70;100400;;;;577270;246;24102;-80
2022/04/11 10:19:28;;;;;;;3.73;1.40;;;12.30;57.40;12.10;100409;;;;574335;246;24080;-77
2022/04/11 10:21:53;;;;;;;2.23;1.20;;;12.70;56.70;12.40;100405;;;;577067;244;24073;-79
2022/04/11 10:24:33;;;;;;;4.47;1.10;;;12.90;55.40;12.30;100410;;;;577425;244;24124;-79
2022/04/11 10:27:23;;;;;;;5.17;1.50;;;13.00;54.10;12.20;100418;;;;577210;246;24134;-80
2022/04/11 10:29:51;;;;;;;4.53;1.60;;;12.70;54.20;11.90;100412;;;;552540;256;24129;-81
2022/04/11 10:32:19;;;;;;;1.90;1.43;;;12.70;54.20;11.50;100412;;;;576863;246;24089;-78
2022/04/11 10:34:49;;;;;;;4.87;1.43;;;12.40;55.80;11.00;100406;;;;576439;246;24078;-80
2022/04/11 10:37:20;;;;;;;7.33;1.43;;;11.90;56.80;10.80;100417;;;;576731;246;24094;-82
2022/04/11 10:39:45;;;;;;;3.30;1.33;;;11.60;58.10;10.60;100417;;;;576692;246;24128;-82
2022/04/11 10:42:13;;;;;;;5.00;2.00;;;11.50;58.90;10.40;100423;;;;552824;256;24136;-83
2022/04/11 10:44:48;;;;;;;4.63;1.30;;;11.20;59.60;10.10;100420;;;;576830;246;24065;-79
2022/04/11 10:47:17;;;;;;;3.23;1.30;;;10.90;60.10;10.10;100414;;;;576208;246;24104;-84
2022/04/11 10:49:53;;;;;;;3.17;1.47;;;10.80;61.30;10.40;100404;;;;576666;244;24092;-82
2022/04/11 10:52:35;;;;;;;2.70;1.40;;;11.40;61.60;10.80;100401;;;;574751;246;24166;-81
2022/04/11 10:55:14;;;;;;;3.43;1.53;;;11.40;61.60;11.40;100403;;;;577243;245;24112;-82
2022/04/11 10:57:43;;;;;;;4.10;1.20;;;12.00;61.90;11.90;100403;;;;577859;245;24082;-80
2022/04/11 11:00:29;;;;;;;3.17;1.10;;;12.50;59.80;12.20;100403;;;;577131;246;24063;-82
2022/04/11 11:02:57;;;;;;;1.63;1.23;;;12.90;57.90;12.50;100413;;;;577649;246;24081;-82
2022/04/11 11:05:28;;;;;;;0.90;0.73;;;13.20;57.80;12.50;100410;;;;577466;244;24048;-81
2022/04/11 11:08:11;;;;;;;1.20;0.80;;;13.30;56.80;12.50;100419;;;;558992;251;24092;-85
2022/04/11 11:11:03;;;;;;;6.10;1.20;;;13.30;56.20;12.40;100419;;;;577355;246;24053;-80
2022/04/11 11:13:40;;;;;;;1.70;0.97;;;12.80;56.90;12.00;100412;;;;575886;246;24133;-81
2022/04/11 11:16:12;;;;;;;1.50;1.10;;;12.70;57.90;11.90;100408;;;;561963;251;24131;-83
2022/04/11 11:18:50;;;;;;;1.27;1.17;;;12.60;58.60;11.90;100415;;;;577403;246;24086;-82